sensor_id;sensor_type;location;lat;lon;timestamp;P1;durP1;ratioP1;P2;durP2;ratioP2
12707;SDS011;6418;50.824;4.718;2023-06-26T00:01:30;13.00;;;7.25;;
12707;SDS011;6418;50.824;4.718;2023-06-26T00:03:57;13.55;;;7.45;;
12707;SDS011;6418;50.824;4.718;2023-06-26T00:06:24;14.63;;;7.65;;
12707;SDS011;6418;50.824;4.718;2023-06-26T00:08:51;13.38;;;7.25;;
12707;SDS011;6418;50.824;4.718;2023-06-26T00:11:20;13.60;;;7.40;;
12707;SDS011;6418;50.824;4.718;2023-06-26T00:13:47;13.07;;;7.13;;
12707;SDS011;6418;50.824;4.718;2023-06-26T00:16:14;14.27;;;7.65;;
12707;SDS011;6418;50.824;4.718;2023-06-26T00:18:41;12.95;;;7.00;;
12707;SDS011;6418;50.824;4.718;2023-06-26T00:21:08;13.68;;;7.10;;
12707;SDS011;6418;50.824;4.718;2023-06-26T00:23:35;14.68;;;7.45;;
12707;SDS011;6418;50.824;4.718;2023-06-26T00:26:02;12.60;;;6.88;;
12707;SDS011;6418;50.824;4.718;2023-06-26T00:28:31;13.55;;;6.85;;
12707;SDS011;6418;50.824;4.718;2023-06-26T00:30:58;12.85;;;6.95;;
12707;SDS011;6418;50.824;4.718;2023-06-26T00:33:25;12.93;;;6.75;;
12707;SDS011;6418;50.824;4.718;2023-06-26T00:35:52;13.85;;;6.72;;
12707;SDS011;6418;50.824;4.718;2023-06-26T00:38:18;13.40;;;7.07;;
12707;SDS011;6418;50.824;4.718;2023-06-26T00:40:46;16.23;;;7.57;;
12707;SDS011;6418;50.824;4.718;2023-06-26T00:43:13;13.57;;;7.30;;
12707;SDS011;6418;50.824;4.718;2023-06-26T00:45:41;16.88;;;7.05;;
12707;SDS011;6418;50.824;4.718;2023-06-26T00:48:08;11.45;;;6.50;;
12707;SDS011;6418;50.824;4.718;2023-06-26T00:50:36;10.85;;;6.32;;
12707;SDS011;6418;50.824;4.718;2023-06-26T00:53:04;13.15;;;6.50;;
12707;SDS011;6418;50.824;4.718;2023-06-26T00:55:30;14.05;;;6.50;;
12707;SDS011;6418;50.824;4.718;2023-06-26T00:57:57;11.40;;;6.38;;
12707;SDS011;6418;50.824;4.718;2023-06-26T01:00:24;12.32;;;6.20;;
12707;SDS011;6418;50.824;4.718;2023-06-26T01:02:52;11.60;;;5.93;;
12707;SDS011;6418;50.824;4.718;2023-06-26T01:05:21;12.38;;;6.15;;
12707;SDS011;6418;50.824;4.718;2023-06-26T01:07:47;11.82;;;5.70;;
12707;SDS011;6418;50.824;4.718;2023-06-26T01:10:15;11.77;;;6.10;;
12707;SDS011;6418;50.824;4.718;2023-06-26T01:12:42;10.70;;;5.97;;
12707;SDS011;6418;50.824;4.718;2023-06-26T01:15:11;12.90;;;6.18;;
12707;SDS011;6418;50.824;4.718;2023-06-26T01:17:37;12.25;;;6.13;;
12707;SDS011;6418;50.824;4.718;2023-06-26T01:20:11;10.25;;;6.00;;
12707;SDS011;6418;50.824;4.718;2023-06-26T01:22:41;12.77;;;5.57;;
12707;SDS011;6418;50.824;4.718;2023-06-26T01:25:15;12.38;;;5.85;;
12707;SDS011;6418;50.824;4.718;2023-06-26T01:27:50;13.43;;;6.20;;
12707;SDS011;6418;50.824;4.718;2023-06-26T01:30:19;12.38;;;6.35;;
12707;SDS011;6418;50.824;4.718;2023-06-26T01:32:47;10.98;;;6.10;;
12707;SDS011;6418;50.824;4.718;2023-06-26T01:35:15;11.13;;;5.93;;
12707;SDS011;6418;50.824;4.718;2023-06-26T01:37:42;13.85;;;6.45;;
12707;SDS011;6418;50.824;4.718;2023-06-26T01:40:09;12.20;;;6.05;;
12707;SDS011;6418;50.824;4.718;2023-06-26T01:42:36;11.38;;;5.78;;
12707;SDS011;6418;50.824;4.718;2023-06-26T01:45:06;12.00;;;5.72;;
12707;SDS011;6418;50.824;4.718;2023-06-26T01:47:38;14.80;;;5.70;;
12707;SDS011;6418;50.824;4.718;2023-06-26T01:50:11;12.35;;;5.60;;
12707;SDS011;6418;50.824;4.718;2023-06-26T01:52:41;11.57;;;5.80;;
12707;SDS011;6418;50.824;4.718;2023-06-26T01:55:12;10.63;;;5.57;;
12707;SDS011;6418;50.824;4.718;2023-06-26T01:57:45;11.60;;;5.75;;
12707;SDS011;6418;50.824;4.718;2023-06-26T02:00:15;10.50;;;5.75;;
12707;SDS011;6418;50.824;4.718;2023-06-26T02:02:43;11.43;;;5.78;;
12707;SDS011;6418;50.824;4.718;2023-06-26T02:05:11;9.82;;;5.45;;
12707;SDS011;6418;50.824;4.718;2023-06-26T02:07:38;12.90;;;5.97;;
12707;SDS011;6418;50.824;4.718;2023-06-26T02:10:06;11.50;;;5.15;;
12707;SDS011;6418;50.824;4.718;2023-06-26T02:12:33;13.75;;;5.65;;
12707;SDS011;6418;50.824;4.718;2023-06-26T02:15:01;10.95;;;5.75;;
12707;SDS011;6418;50.824;4.718;2023-06-26T02:17:30;13.00;;;5.70;;
12707;SDS011;6418;50.824;4.718;2023-06-26T02:19:57;11.90;;;5.68;;
12707;SDS011;6418;50.824;4.718;2023-06-26T02:22:24;13.05;;;5.80;;
12707;SDS011;6418;50.824;4.718;2023-06-26T02:24:53;10.80;;;5.47;;
12707;SDS011;6418;50.824;4.718;2023-06-26T02:27:20;11.35;;;5.40;;
12707;SDS011;6418;50.824;4.718;2023-06-26T02:29:47;14.45;;;5.50;;
12707;SDS011;6418;50.824;4.718;2023-06-26T02:32:14;12.48;;;5.57;;
12707;SDS011;6418;50.824;4.718;2023-06-26T02:34:42;12.18;;;5.40;;
12707;SDS011;6418;50.824;4.718;2023-06-26T02:37:09;12.83;;;5.67;;
12707;SDS011;6418;50.824;4.718;2023-06-26T02:39:36;12.23;;;6.03;;
12707;SDS011;6418;50.824;4.718;2023-06-26T02:42:03;13.27;;;5.80;;
12707;SDS011;6418;50.824;4.718;2023-06-26T02:44:30;12.30;;;5.63;;
12707;SDS011;6418;50.824;4.718;2023-06-26T02:46:57;12.77;;;5.85;;
12707;SDS011;6418;50.824;4.718;2023-06-26T02:49:24;13.65;;;5.93;;
12707;SDS011;6418;50.824;4.718;2023-06-26T02:51:52;12.47;;;5.80;;
12707;SDS011;6418;50.824;4.718;2023-06-26T02:54:19;13.98;;;6.00;;
12707;SDS011;6418;50.824;4.718;2023-06-26T02:56:45;12.38;;;5.50;;
12707;SDS011;6418;50.824;4.718;2023-06-26T02:59:13;14.37;;;6.00;;
12707;SDS011;6418;50.824;4.718;2023-06-26T03:01:40;14.90;;;5.80;;
12707;SDS011;6418;50.824;4.718;2023-06-26T03:04:06;13.53;;;6.10;;
12707;SDS011;6418;50.824;4.718;2023-06-26T03:06:34;14.83;;;6.10;;
12707;SDS011;6418;50.824;4.718;2023-06-26T03:09:02;13.63;;;6.07;;
12707;SDS011;6418;50.824;4.718;2023-06-26T03:11:29;14.70;;;6.30;;
12707;SDS011;6418;50.824;4.718;2023-06-26T03:13:56;12.93;;;5.93;;
12707;SDS011;6418;50.824;4.718;2023-06-26T03:16:23;13.67;;;6.17;;
12707;SDS011;6418;50.824;4.718;2023-06-26T03:18:49;13.07;;;6.23;;
12707;SDS011;6418;50.824;4.718;2023-06-26T03:21:17;15.73;;;6.50;;
12707;SDS011;6418;50.824;4.718;2023-06-26T03:23:44;14.55;;;6.35;;
12707;SDS011;6418;50.824;4.718;2023-06-26T03:26:12;16.27;;;6.40;;
12707;SDS011;6418;50.824;4.718;2023-06-26T03:28:39;18.10;;;6.70;;
12707;SDS011;6418;50.824;4.718;2023-06-26T03:31:07;13.97;;;6.23;;
12707;SDS011;6418;50.824;4.718;2023-06-26T03:33:34;14.47;;;6.80;;
12707;SDS011;6418;50.824;4.718;2023-06-26T03:36:00;13.50;;;6.30;;
12707;SDS011;6418;50.824;4.718;2023-06-26T03:38:27;14.07;;;6.60;;
12707;SDS011;6418;50.824;4.718;2023-06-26T03:40:54;15.43;;;6.37;;
12707;SDS011;6418;50.824;4.718;2023-06-26T03:43:23;16.03;;;6.93;;
12707;SDS011;6418;50.824;4.718;2023-06-26T03:45:50;15.63;;;6.40;;
12707;SDS011;6418;50.824;4.718;2023-06-26T03:48:16;17.23;;;6.70;;
12707;SDS011;6418;50.824;4.718;2023-06-26T03:50:43;16.17;;;6.53;;
12707;SDS011;6418;50.824;4.718;2023-06-26T03:53:11;15.77;;;6.97;;
12707;SDS011;6418;50.824;4.718;2023-06-26T03:55:37;16.60;;;6.70;;
12707;SDS011;6418;50.824;4.718;2023-06-26T03:58:04;14.57;;;6.60;;
12707;SDS011;6418;50.824;4.718;2023-06-26T04:00:32;16.17;;;6.87;;
12707;SDS011;6418;50.824;4.718;2023-06-26T04:02:59;18.07;;;6.90;;
12707;SDS011;6418;50.824;4.718;2023-06-26T04:05:28;17.63;;;7.13;;
12707;SDS011;6418;50.824;4.718;2023-06-26T04:07:55;18.13;;;6.60;;
12707;SDS011;6418;50.824;4.718;2023-06-26T04:10:21;17.00;;;6.93;;
12707;SDS011;6418;50.824;4.718;2023-06-26T04:12:48;16.83;;;6.97;;
12707;SDS011;6418;50.824;4.718;2023-06-26T04:15:15;15.13;;;6.60;;
12707;SDS011;6418;50.824;4.718;2023-06-26T04:17:43;14.77;;;6.77;;
12707;SDS011;6418;50.824;4.718;2023-06-26T04:20:10;18.00;;;6.90;;
12707;SDS011;6418;50.824;4.718;2023-06-26T04:22:38;16.80;;;7.10;;
12707;SDS011;6418;50.824;4.718;2023-06-26T04:25:05;14.33;;;6.80;;
12707;SDS011;6418;50.824;4.718;2023-06-26T04:27:32;20.37;;;7.43;;
12707;SDS011;6418;50.824;4.718;2023-06-26T04:29:59;19.17;;;6.90;;
12707;SDS011;6418;50.824;4.718;2023-06-26T04:32:25;19.37;;;6.97;;
12707;SDS011;6418;50.824;4.718;2023-06-26T04:34:54;16.93;;;6.53;;
12707;SDS011;6418;50.824;4.718;2023-06-26T04:37:21;19.43;;;7.00;;
12707;SDS011;6418;50.824;4.718;2023-06-26T04:39:49;19.13;;;7.13;;
12707;SDS011;6418;50.824;4.718;2023-06-26T04:42:16;17.67;;;6.90;;
12707;SDS011;6418;50.824;4.718;2023-06-26T04:44:44;17.60;;;6.43;;
12707;SDS011;6418;50.824;4.718;2023-06-26T04:47:10;16.43;;;6.80;;
12707;SDS011;6418;50.824;4.718;2023-06-26T04:49:40;18.17;;;6.73;;
12707;SDS011;6418;50.824;4.718;2023-06-26T04:52:09;17.03;;;6.80;;
12707;SDS011;6418;50.824;4.718;2023-06-26T04:54:38;19.30;;;6.93;;
12707;SDS011;6418;50.824;4.718;2023-06-26T04:57:05;17.57;;;7.13;;
12707;SDS011;6418;50.824;4.718;2023-06-26T04:59:33;18.37;;;7.07;;
12707;SDS011;6418;50.824;4.718;2023-06-26T05:02:00;17.87;;;6.47;;
12707;SDS011;6418;50.824;4.718;2023-06-26T05:04:28;18.07;;;6.60;;
12707;SDS011;6418;50.824;4.718;2023-06-26T05:06:54;18.40;;;6.73;;
12707;SDS011;6418;50.824;4.718;2023-06-26T05:09:23;19.93;;;7.00;;
12707;SDS011;6418;50.824;4.718;2023-06-26T05:11:49;18.23;;;6.97;;
12707;SDS011;6418;50.824;4.718;2023-06-26T05:14:17;18.23;;;6.67;;
12707;SDS011;6418;50.824;4.718;2023-06-26T05:16:43;17.57;;;6.47;;
12707;SDS011;6418;50.824;4.718;2023-06-26T05:19:10;19.20;;;6.57;;
12707;SDS011;6418;50.824;4.718;2023-06-26T05:21:37;17.87;;;6.13;;
12707;SDS011;6418;50.824;4.718;2023-06-26T05:24:05;19.97;;;6.60;;
12707;SDS011;6418;50.824;4.718;2023-06-26T05:26:35;17.37;;;6.27;;
12707;SDS011;6418;50.824;4.718;2023-06-26T05:29:02;19.30;;;6.40;;
12707;SDS011;6418;50.824;4.718;2023-06-26T05:31:30;17.27;;;6.37;;
12707;SDS011;6418;50.824;4.718;2023-06-26T05:34:00;14.57;;;6.33;;
12707;SDS011;6418;50.824;4.718;2023-06-26T05:36:29;18.90;;;6.17;;
12707;SDS011;6418;50.824;4.718;2023-06-26T05:38:59;17.20;;;6.20;;
12707;SDS011;6418;50.824;4.718;2023-06-26T05:41:26;15.63;;;5.83;;
12707;SDS011;6418;50.824;4.718;2023-06-26T05:43:55;18.87;;;6.13;;
12707;SDS011;6418;50.824;4.718;2023-06-26T05:46:22;19.50;;;6.10;;
12707;SDS011;6418;50.824;4.718;2023-06-26T05:48:48;15.63;;;5.53;;
12707;SDS011;6418;50.824;4.718;2023-06-26T05:51:15;15.23;;;5.63;;
12707;SDS011;6418;50.824;4.718;2023-06-26T05:53:43;20.03;;;6.17;;
12707;SDS011;6418;50.824;4.718;2023-06-26T05:56:10;17.77;;;5.90;;
12707;SDS011;6418;50.824;4.718;2023-06-26T05:58:38;16.57;;;5.67;;
12707;SDS011;6418;50.824;4.718;2023-06-26T06:01:08;16.90;;;5.83;;
12707;SDS011;6418;50.824;4.718;2023-06-26T06:03:35;19.37;;;5.70;;
12707;SDS011;6418;50.824;4.718;2023-06-26T06:06:02;15.43;;;5.90;;
12707;SDS011;6418;50.824;4.718;2023-06-26T06:08:29;15.80;;;5.40;;
12707;SDS011;6418;50.824;4.718;2023-06-26T06:10:56;15.80;;;6.03;;
12707;SDS011;6418;50.824;4.718;2023-06-26T06:13:23;18.20;;;5.60;;
12707;SDS011;6418;50.824;4.718;2023-06-26T06:15:50;16.57;;;5.47;;
12707;SDS011;6418;50.824;4.718;2023-06-26T06:18:18;19.17;;;5.80;;
12707;SDS011;6418;50.824;4.718;2023-06-26T06:20:45;16.67;;;5.30;;
12707;SDS011;6418;50.824;4.718;2023-06-26T06:23:12;15.53;;;5.60;;
12707;SDS011;6418;50.824;4.718;2023-06-26T06:25:39;16.80;;;5.43;;
12707;SDS011;6418;50.824;4.718;2023-06-26T06:28:06;17.60;;;5.63;;
12707;SDS011;6418;50.824;4.718;2023-06-26T06:30:33;17.10;;;5.50;;
12707;SDS011;6418;50.824;4.718;2023-06-26T06:32:59;16.30;;;5.47;;
12707;SDS011;6418;50.824;4.718;2023-06-26T06:35:28;17.00;;;5.20;;
12707;SDS011;6418;50.824;4.718;2023-06-26T06:37:54;17.13;;;4.90;;
12707;SDS011;6418;50.824;4.718;2023-06-26T06:40:22;16.93;;;5.17;;
12707;SDS011;6418;50.824;4.718;2023-06-26T06:42:49;16.87;;;5.17;;
12707;SDS011;6418;50.824;4.718;2023-06-26T06:45:16;16.53;;;5.07;;
12707;SDS011;6418;50.824;4.718;2023-06-26T06:47:43;18.27;;;4.63;;
12707;SDS011;6418;50.824;4.718;2023-06-26T06:50:10;13.60;;;5.07;;
12707;SDS011;6418;50.824;4.718;2023-06-26T06:52:40;13.00;;;4.90;;
12707;SDS011;6418;50.824;4.718;2023-06-26T06:55:07;11.87;;;4.70;;
12707;SDS011;6418;50.824;4.718;2023-06-26T06:57:35;15.63;;;4.93;;
12707;SDS011;6418;50.824;4.718;2023-06-26T07:00:03;14.90;;;5.00;;
12707;SDS011;6418;50.824;4.718;2023-06-26T07:02:33;14.77;;;4.93;;
12707;SDS011;6418;50.824;4.718;2023-06-26T07:05:00;13.07;;;4.70;;
12707;SDS011;6418;50.824;4.718;2023-06-26T07:07:28;14.63;;;4.53;;
12707;SDS011;6418;50.824;4.718;2023-06-26T07:09:58;13.50;;;4.57;;
12707;SDS011;6418;50.824;4.718;2023-06-26T07:12:26;13.05;;;4.40;;
12707;SDS011;6418;50.824;4.718;2023-06-26T07:14:53;14.27;;;4.83;;
12707;SDS011;6418;50.824;4.718;2023-06-26T07:17:21;13.83;;;4.50;;
12707;SDS011;6418;50.824;4.718;2023-06-26T07:19:48;13.67;;;4.60;;
12707;SDS011;6418;50.824;4.718;2023-06-26T07:22:15;13.73;;;4.50;;
12707;SDS011;6418;50.824;4.718;2023-06-26T07:24:44;12.67;;;4.73;;
12707;SDS011;6418;50.824;4.718;2023-06-26T07:27:12;14.80;;;4.83;;
12707;SDS011;6418;50.824;4.718;2023-06-26T07:29:39;13.33;;;4.47;;
12707;SDS011;6418;50.824;4.718;2023-06-26T07:32:06;12.93;;;4.80;;
12707;SDS011;6418;50.824;4.718;2023-06-26T07:34:33;12.30;;;4.37;;
12707;SDS011;6418;50.824;4.718;2023-06-26T07:37:00;14.53;;;4.53;;
12707;SDS011;6418;50.824;4.718;2023-06-26T07:39:27;13.43;;;4.27;;
12707;SDS011;6418;50.824;4.718;2023-06-26T07:41:54;13.73;;;4.33;;
12707;SDS011;6418;50.824;4.718;2023-06-26T07:44:22;10.98;;;4.40;;
12707;SDS011;6418;50.824;4.718;2023-06-26T07:46:49;13.03;;;4.40;;
12707;SDS011;6418;50.824;4.718;2023-06-26T07:49:16;13.13;;;4.50;;
12707;SDS011;6418;50.824;4.718;2023-06-26T07:51:43;13.13;;;3.97;;
12707;SDS011;6418;50.824;4.718;2023-06-26T07:54:09;16.00;;;4.23;;
12707;SDS011;6418;50.824;4.718;2023-06-26T07:56:52;13.43;;;4.07;;
12707;SDS011;6418;50.824;4.718;2023-06-26T07:59:20;11.35;;;4.10;;
12707;SDS011;6418;50.824;4.718;2023-06-26T08:01:49;13.13;;;4.35;;
12707;SDS011;6418;50.824;4.718;2023-06-26T08:04:18;15.10;;;4.32;;
12707;SDS011;6418;50.824;4.718;2023-06-26T08:06:47;16.33;;;4.57;;
12707;SDS011;6418;50.824;4.718;2023-06-26T08:09:14;12.73;;;4.03;;
12707;SDS011;6418;50.824;4.718;2023-06-26T08:11:42;9.68;;;3.80;;
12707;SDS011;6418;50.824;4.718;2023-06-26T08:14:09;10.55;;;3.95;;
12707;SDS011;6418;50.824;4.718;2023-06-26T08:16:38;12.45;;;4.40;;
12707;SDS011;6418;50.824;4.718;2023-06-26T08:19:05;13.35;;;3.95;;
12707;SDS011;6418;50.824;4.718;2023-06-26T08:21:32;13.37;;;3.73;;
12707;SDS011;6418;50.824;4.718;2023-06-26T08:23:59;13.82;;;4.10;;
12707;SDS011;6418;50.824;4.718;2023-06-26T08:26:26;9.65;;;3.85;;
12707;SDS011;6418;50.824;4.718;2023-06-26T08:28:53;14.05;;;4.15;;
12707;SDS011;6418;50.824;4.718;2023-06-26T08:31:20;7.47;;;3.58;;
12707;SDS011;6418;50.824;4.718;2023-06-26T08:33:48;11.30;;;4.07;;
12707;SDS011;6418;50.824;4.718;2023-06-26T08:36:15;11.98;;;4.13;;
12707;SDS011;6418;50.824;4.718;2023-06-26T08:38:42;10.23;;;4.10;;
12707;SDS011;6418;50.824;4.718;2023-06-26T08:41:09;11.32;;;3.90;;
12707;SDS011;6418;50.824;4.718;2023-06-26T08:43:36;13.00;;;3.85;;
12707;SDS011;6418;50.824;4.718;2023-06-26T08:46:03;13.23;;;4.03;;
12707;SDS011;6418;50.824;4.718;2023-06-26T08:48:32;8.57;;;3.58;;
12707;SDS011;6418;50.824;4.718;2023-06-26T08:51:01;11.68;;;4.00;;
12707;SDS011;6418;50.824;4.718;2023-06-26T08:53:36;10.85;;;3.80;;
12707;SDS011;6418;50.824;4.718;2023-06-26T08:56:09;13.52;;;3.92;;
12707;SDS011;6418;50.824;4.718;2023-06-26T08:58:37;11.80;;;3.70;;
12707;SDS011;6418;50.824;4.718;2023-06-26T09:01:04;11.38;;;3.65;;
12707;SDS011;6418;50.824;4.718;2023-06-26T09:03:31;8.27;;;3.47;;
12707;SDS011;6418;50.824;4.718;2023-06-26T09:05:59;9.02;;;3.72;;
12707;SDS011;6418;50.824;4.718;2023-06-26T09:08:27;10.63;;;3.50;;
12707;SDS011;6418;50.824;4.718;2023-06-26T09:10:54;8.90;;;3.60;;
12707;SDS011;6418;50.824;4.718;2023-06-26T09:13:21;9.80;;;3.53;;
12707;SDS011;6418;50.824;4.718;2023-06-26T09:15:48;9.32;;;3.50;;
12707;SDS011;6418;50.824;4.718;2023-06-26T09:18:16;10.65;;;3.65;;
12707;SDS011;6418;50.824;4.718;2023-06-26T09:20:44;9.13;;;3.72;;
12707;SDS011;6418;50.824;4.718;2023-06-26T09:23:11;8.95;;;3.55;;
12707;SDS011;6418;50.824;4.718;2023-06-26T09:25:39;8.43;;;3.38;;
12707;SDS011;6418;50.824;4.718;2023-06-26T09:28:08;6.80;;;3.28;;
12707;SDS011;6418;50.824;4.718;2023-06-26T09:30:35;7.35;;;3.40;;
12707;SDS011;6418;50.824;4.718;2023-06-26T09:33:12;8.02;;;3.53;;
12707;SDS011;6418;50.824;4.718;2023-06-26T09:35:40;8.57;;;3.30;;
12707;SDS011;6418;50.824;4.718;2023-06-26T09:38:07;7.03;;;3.67;;
12707;SDS011;6418;50.824;4.718;2023-06-26T09:40:34;8.55;;;3.60;;
12707;SDS011;6418;50.824;4.718;2023-06-26T09:43:04;9.93;;;3.50;;
12707;SDS011;6418;50.824;4.718;2023-06-26T09:45:32;9.52;;;3.30;;
12707;SDS011;6418;50.824;4.718;2023-06-26T09:48:00;10.07;;;3.60;;
12707;SDS011;6418;50.824;4.718;2023-06-26T09:50:28;8.88;;;3.58;;
12707;SDS011;6418;50.824;4.718;2023-06-26T09:52:57;7.05;;;3.50;;
12707;SDS011;6418;50.824;4.718;2023-06-26T09:55:24;7.50;;;3.47;;
12707;SDS011;6418;50.824;4.718;2023-06-26T09:57:52;10.57;;;3.45;;
12707;SDS011;6418;50.824;4.718;2023-06-26T10:00:24;9.00;;;3.42;;
12707;SDS011;6418;50.824;4.718;2023-06-26T10:02:50;10.27;;;3.90;;
12707;SDS011;6418;50.824;4.718;2023-06-26T10:05:17;8.13;;;3.33;;
12707;SDS011;6418;50.824;4.718;2023-06-26T10:07:45;8.20;;;3.53;;
12707;SDS011;6418;50.824;4.718;2023-06-26T10:10:13;5.75;;;3.05;;
12707;SDS011;6418;50.824;4.718;2023-06-26T10:12:42;6.70;;;3.28;;
12707;SDS011;6418;50.824;4.718;2023-06-26T10:15:14;10.00;;;3.65;;
12707;SDS011;6418;50.824;4.718;2023-06-26T10:17:43;9.90;;;3.40;;
12707;SDS011;6418;50.824;4.718;2023-06-26T10:20:12;6.13;;;3.28;;
12707;SDS011;6418;50.824;4.718;2023-06-26T10:22:41;11.25;;;3.78;;
12707;SDS011;6418;50.824;4.718;2023-06-26T10:25:10;9.48;;;3.28;;
12707;SDS011;6418;50.824;4.718;2023-06-26T10:27:40;9.75;;;3.42;;
12707;SDS011;6418;50.824;4.718;2023-06-26T10:30:12;8.30;;;3.70;;
12707;SDS011;6418;50.824;4.718;2023-06-26T10:32:43;12.73;;;3.80;;
12707;SDS011;6418;50.824;4.718;2023-06-26T10:35:11;9.27;;;3.20;;
12707;SDS011;6418;50.824;4.718;2023-06-26T10:37:42;9.35;;;3.67;;
12707;SDS011;6418;50.824;4.718;2023-06-26T10:40:10;9.48;;;3.25;;
12707;SDS011;6418;50.824;4.718;2023-06-26T10:42:38;11.98;;;3.30;;
12707;SDS011;6418;50.824;4.718;2023-06-26T10:45:09;8.68;;;3.60;;
12707;SDS011;6418;50.824;4.718;2023-06-26T10:47:37;8.00;;;3.80;;
12707;SDS011;6418;50.824;4.718;2023-06-26T10:50:20;10.70;;;4.07;;
12707;SDS011;6418;50.824;4.718;2023-06-26T10:55:42;9.38;;;3.65;;
12707;SDS011;6418;50.824;4.718;2023-06-26T11:01:18;9.95;;;3.67;;
12707;SDS011;6418;50.824;4.718;2023-06-26T11:03:47;8.68;;;3.22;;
12707;SDS011;6418;50.824;4.718;2023-06-26T11:06:17;9.05;;;3.50;;
12707;SDS011;6418;50.824;4.718;2023-06-26T11:08:45;8.32;;;3.25;;
12707;SDS011;6418;50.824;4.718;2023-06-26T11:11:13;9.27;;;3.60;;
12707;SDS011;6418;50.824;4.718;2023-06-26T11:13:41;10.85;;;3.22;;
12707;SDS011;6418;50.824;4.718;2023-06-26T11:16:08;8.77;;;3.47;;
12707;SDS011;6418;50.824;4.718;2023-06-26T11:18:35;7.80;;;3.53;;
12707;SDS011;6418;50.824;4.718;2023-06-26T11:21:05;8.57;;;3.50;;
12707;SDS011;6418;50.824;4.718;2023-06-26T11:23:35;9.48;;;3.50;;
12707;SDS011;6418;50.824;4.718;2023-06-26T11:26:15;11.52;;;3.65;;
12707;SDS011;6418;50.824;4.718;2023-06-26T11:28:46;6.75;;;3.10;;
12707;SDS011;6418;50.824;4.718;2023-06-26T11:31:23;10.27;;;3.78;;
12707;SDS011;6418;50.824;4.718;2023-06-26T11:33:51;10.82;;;3.45;;
12707;SDS011;6418;50.824;4.718;2023-06-26T11:36:19;12.05;;;3.60;;
12707;SDS011;6418;50.824;4.718;2023-06-26T11:38:52;8.80;;;3.63;;
12707;SDS011;6418;50.824;4.718;2023-06-26T11:41:19;6.78;;;3.40;;
12707;SDS011;6418;50.824;4.718;2023-06-26T11:43:46;8.93;;;3.83;;
12707;SDS011;6418;50.824;4.718;2023-06-26T11:46:14;12.98;;;4.30;;
12707;SDS011;6418;50.824;4.718;2023-06-26T11:48:43;13.00;;;4.20;;
12707;SDS011;6418;50.824;4.718;2023-06-26T11:51:12;9.93;;;3.95;;
12707;SDS011;6418;50.824;4.718;2023-06-26T11:53:39;13.07;;;4.00;;
12707;SDS011;6418;50.824;4.718;2023-06-26T11:56:09;12.52;;;4.00;;
12707;SDS011;6418;50.824;4.718;2023-06-26T12:01:30;9.52;;;3.97;;
12707;SDS011;6418;50.824;4.718;2023-06-26T12:03:59;6.60;;;3.38;;
12707;SDS011;6418;50.824;4.718;2023-06-26T12:06:28;11.02;;;3.85;;
12707;SDS011;6418;50.824;4.718;2023-06-26T12:08:57;6.53;;;3.85;;
12707;SDS011;6418;50.824;4.718;2023-06-26T12:11:26;9.05;;;3.95;;
12707;SDS011;6418;50.824;4.718;2023-06-26T12:13:55;9.30;;;3.80;;
12707;SDS011;6418;50.824;4.718;2023-06-26T12:16:22;14.52;;;3.85;;
12707;SDS011;6418;50.824;4.718;2023-06-26T12:18:50;11.02;;;4.10;;
12707;SDS011;6418;50.824;4.718;2023-06-26T12:21:33;13.63;;;4.07;;
12707;SDS011;6418;50.824;4.718;2023-06-26T12:24:12;9.43;;;3.88;;
12707;SDS011;6418;50.824;4.718;2023-06-26T12:26:42;10.95;;;4.00;;
12707;SDS011;6418;50.824;4.718;2023-06-26T12:29:10;9.65;;;3.95;;
12707;SDS011;6418;50.824;4.718;2023-06-26T12:31:41;8.00;;;4.00;;
12707;SDS011;6418;50.824;4.718;2023-06-26T12:34:10;10.07;;;3.65;;
12707;SDS011;6418;50.824;4.718;2023-06-26T12:36:41;12.75;;;4.10;;
12707;SDS011;6418;50.824;4.718;2023-06-26T12:39:09;9.07;;;3.70;;
12707;SDS011;6418;50.824;4.718;2023-06-26T12:41:49;6.28;;;3.60;;
12707;SDS011;6418;50.824;4.718;2023-06-26T12:44:19;10.88;;;3.83;;
12707;SDS011;6418;50.824;4.718;2023-06-26T12:46:46;9.90;;;3.70;;
12707;SDS011;6418;50.824;4.718;2023-06-26T12:49:15;11.07;;;3.78;;
12707;SDS011;6418;50.824;4.718;2023-06-26T12:51:42;6.57;;;3.50;;
12707;SDS011;6418;50.824;4.718;2023-06-26T12:54:09;9.45;;;3.70;;
12707;SDS011;6418;50.824;4.718;2023-06-26T12:56:36;9.30;;;3.67;;
12707;SDS011;6418;50.824;4.718;2023-06-26T12:59:04;9.20;;;3.92;;
12707;SDS011;6418;50.824;4.718;2023-06-26T13:01:31;9.77;;;3.80;;
12707;SDS011;6418;50.824;4.718;2023-06-26T13:03:59;11.18;;;4.07;;
12707;SDS011;6418;50.824;4.718;2023-06-26T13:06:26;9.80;;;3.80;;
12707;SDS011;6418;50.824;4.718;2023-06-26T13:08:53;7.68;;;3.80;;
12707;SDS011;6418;50.824;4.718;2023-06-26T13:11:19;12.43;;;3.63;;
12707;SDS011;6418;50.824;4.718;2023-06-26T13:13:47;8.52;;;3.60;;
12707;SDS011;6418;50.824;4.718;2023-06-26T13:16:15;9.00;;;3.60;;
12707;SDS011;6418;50.824;4.718;2023-06-26T13:18:43;11.23;;;3.72;;
12707;SDS011;6418;50.824;4.718;2023-06-26T13:21:10;9.32;;;3.60;;
12707;SDS011;6418;50.824;4.718;2023-06-26T13:23:37;10.05;;;3.63;;
12707;SDS011;6418;50.824;4.718;2023-06-26T13:26:04;7.40;;;3.67;;
12707;SDS011;6418;50.824;4.718;2023-06-26T13:28:31;7.53;;;3.35;;
12707;SDS011;6418;50.824;4.718;2023-06-26T13:30:58;9.52;;;3.72;;
12707;SDS011;6418;50.824;4.718;2023-06-26T13:33:26;9.82;;;3.45;;
12707;SDS011;6418;50.824;4.718;2023-06-26T13:35:53;8.68;;;3.33;;
12707;SDS011;6418;50.824;4.718;2023-06-26T13:38:21;8.77;;;3.50;;
12707;SDS011;6418;50.824;4.718;2023-06-26T13:40:50;11.45;;;4.00;;
12707;SDS011;6418;50.824;4.718;2023-06-26T13:43:17;9.75;;;3.50;;
12707;SDS011;6418;50.824;4.718;2023-06-26T13:45:44;9.30;;;3.58;;
12707;SDS011;6418;50.824;4.718;2023-06-26T13:48:11;10.00;;;3.80;;
12707;SDS011;6418;50.824;4.718;2023-06-26T13:50:39;9.32;;;3.70;;
12707;SDS011;6418;50.824;4.718;2023-06-26T13:53:06;7.38;;;3.70;;
12707;SDS011;6418;50.824;4.718;2023-06-26T13:55:33;9.75;;;3.63;;
12707;SDS011;6418;50.824;4.718;2023-06-26T13:58:02;9.13;;;3.75;;
12707;SDS011;6418;50.824;4.718;2023-06-26T14:00:31;9.07;;;3.40;;
12707;SDS011;6418;50.824;4.718;2023-06-26T14:02:58;9.30;;;3.80;;
12707;SDS011;6418;50.824;4.718;2023-06-26T14:05:25;9.30;;;3.75;;
12707;SDS011;6418;50.824;4.718;2023-06-26T14:07:54;8.32;;;3.60;;
12707;SDS011;6418;50.824;4.718;2023-06-26T14:10:21;9.18;;;3.75;;
12707;SDS011;6418;50.824;4.718;2023-06-26T14:12:48;12.98;;;3.72;;
12707;SDS011;6418;50.824;4.718;2023-06-26T14:15:15;6.53;;;3.05;;
12707;SDS011;6418;50.824;4.718;2023-06-26T14:17:42;9.93;;;4.00;;
12707;SDS011;6418;50.824;4.718;2023-06-26T14:20:09;10.38;;;3.60;;
12707;SDS011;6418;50.824;4.718;2023-06-26T14:22:38;9.90;;;3.58;;
12707;SDS011;6418;50.824;4.718;2023-06-26T14:25:06;9.88;;;3.63;;
12707;SDS011;6418;50.824;4.718;2023-06-26T14:27:34;6.55;;;3.00;;
12707;SDS011;6418;50.824;4.718;2023-06-26T14:30:02;7.57;;;3.47;;
12707;SDS011;6418;50.824;4.718;2023-06-26T14:32:30;11.32;;;3.50;;
12707;SDS011;6418;50.824;4.718;2023-06-26T14:34:57;9.10;;;3.40;;
12707;SDS011;6418;50.824;4.718;2023-06-26T14:37:24;8.20;;;3.25;;
12707;SDS011;6418;50.824;4.718;2023-06-26T14:39:52;10.00;;;3.90;;
12707;SDS011;6418;50.824;4.718;2023-06-26T14:42:20;8.15;;;3.38;;
12707;SDS011;6418;50.824;4.718;2023-06-26T14:44:47;11.50;;;3.85;;
12707;SDS011;6418;50.824;4.718;2023-06-26T14:47:15;12.57;;;3.70;;
12707;SDS011;6418;50.824;4.718;2023-06-26T14:49:42;9.32;;;3.47;;
12707;SDS011;6418;50.824;4.718;2023-06-26T14:52:09;7.78;;;3.42;;
12707;SDS011;6418;50.824;4.718;2023-06-26T14:54:36;8.05;;;3.50;;
12707;SDS011;6418;50.824;4.718;2023-06-26T14:57:05;12.23;;;3.75;;
12707;SDS011;6418;50.824;4.718;2023-06-26T14:59:33;8.55;;;3.42;;
12707;SDS011;6418;50.824;4.718;2023-06-26T15:02:00;10.82;;;3.67;;
12707;SDS011;6418;50.824;4.718;2023-06-26T15:04:27;8.18;;;3.58;;